sensor_id;sensor_type;location;lat;lon;timestamp;P1;durP1;ratioP1;P2;durP2;ratioP2
53010;SDS011;42803;55.762;38.084;2023-02-01T00:01:40;23.83;;;9.00;;
53010;SDS011;42803;55.762;38.084;2023-02-01T00:04:09;20.00;;;8.40;;
53010;SDS011;42803;55.762;38.084;2023-02-01T00:06:39;22.92;;;8.20;;
53010;SDS011;42803;55.762;38.084;2023-02-01T00:09:08;23.35;;;9.73;;
53010;SDS011;42803;55.762;38.084;2023-02-01T00:11:37;19.42;;;8.55;;
53010;SDS011;42803;55.762;38.084;2023-02-01T00:14:06;21.80;;;8.75;;
53010;SDS011;42803;55.762;38.084;2023-02-01T00:16:38;24.40;;;9.02;;
53010;SDS011;42803;55.762;38.084;2023-02-01T00:19:09;25.95;;;9.93;;
53010;SDS011;42803;55.762;38.084;2023-02-01T00:21:39;26.55;;;9.80;;
53010;SDS011;42803;55.762;38.084;2023-02-01T00:24:09;23.20;;;8.98;;
53010;SDS011;42803;55.762;38.084;2023-02-01T00:26:39;20.50;;;8.38;;
53010;SDS011;42803;55.762;38.084;2023-02-01T00:29:11;20.90;;;9.07;;
53010;SDS011;42803;55.762;38.084;2023-02-01T00:31:44;26.25;;;9.85;;
53010;SDS011;42803;55.762;38.084;2023-02-01T00:34:15;26.27;;;9.32;;
53010;SDS011;42803;55.762;38.084;2023-02-01T00:36:45;23.85;;;9.25;;
53010;SDS011;42803;55.762;38.084;2023-02-01T00:39:15;24.27;;;9.30;;
53010;SDS011;42803;55.762;38.084;2023-02-01T00:41:45;25.58;;;8.27;;
53010;SDS011;42803;55.762;38.084;2023-02-01T00:44:14;26.27;;;9.55;;
53010;SDS011;42803;55.762;38.084;2023-02-01T00:46:45;22.40;;;9.15;;
53010;SDS011;42803;55.762;38.084;2023-02-01T00:49:14;26.85;;;10.57;;
53010;SDS011;42803;55.762;38.084;2023-02-01T00:51:43;25.38;;;9.55;;
53010;SDS011;42803;55.762;38.084;2023-02-01T00:54:12;24.05;;;8.73;;
53010;SDS011;42803;55.762;38.084;2023-02-01T00:56:41;22.75;;;9.18;;
53010;SDS011;42803;55.762;38.084;2023-02-01T00:59:10;18.08;;;7.90;;
53010;SDS011;42803;55.762;38.084;2023-02-01T01:01:40;21.40;;;9.40;;
53010;SDS011;42803;55.762;38.084;2023-02-01T01:04:11;21.30;;;9.15;;
53010;SDS011;42803;55.762;38.084;2023-02-01T01:06:40;23.48;;;8.93;;
53010;SDS011;42803;55.762;38.084;2023-02-01T01:09:09;23.20;;;8.55;;
53010;SDS011;42803;55.762;38.084;2023-02-01T01:11:38;22.30;;;8.57;;
53010;SDS011;42803;55.762;38.084;2023-02-01T01:14:07;18.42;;;7.65;;
53010;SDS011;42803;55.762;38.084;2023-02-01T01:16:37;19.13;;;7.88;;
53010;SDS011;42803;55.762;38.084;2023-02-01T01:19:06;20.48;;;8.07;;
53010;SDS011;42803;55.762;38.084;2023-02-01T01:21:37;18.92;;;7.57;;
53010;SDS011;42803;55.762;38.084;2023-02-01T01:24:06;19.85;;;7.82;;
53010;SDS011;42803;55.762;38.084;2023-02-01T01:26:36;17.00;;;8.20;;
53010;SDS011;42803;55.762;38.084;2023-02-01T01:29:05;17.70;;;7.38;;
53010;SDS011;42803;55.762;38.084;2023-02-01T01:31:34;21.23;;;8.63;;
53010;SDS011;42803;55.762;38.084;2023-02-01T01:34:03;21.70;;;8.05;;
53010;SDS011;42803;55.762;38.084;2023-02-01T01:36:32;18.98;;;7.88;;
53010;SDS011;42803;55.762;38.084;2023-02-01T01:39:02;19.98;;;8.02;;
53010;SDS011;42803;55.762;38.084;2023-02-01T01:41:32;14.18;;;7.05;;
53010;SDS011;42803;55.762;38.084;2023-02-01T01:47:34;20.60;;;8.43;;
53010;SDS011;42803;55.762;38.084;2023-02-01T01:50:06;22.25;;;9.00;;
53010;SDS011;42803;55.762;38.084;2023-02-01T01:52:38;20.38;;;8.13;;
53010;SDS011;42803;55.762;38.084;2023-02-01T01:55:11;18.65;;;6.70;;
53010;SDS011;42803;55.762;38.084;2023-02-01T01:57:42;24.58;;;8.85;;
53010;SDS011;42803;55.762;38.084;2023-02-01T02:00:16;27.98;;;9.25;;
53010;SDS011;42803;55.762;38.084;2023-02-01T02:02:52;20.02;;;7.72;;
53010;SDS011;42803;55.762;38.084;2023-02-01T02:05:25;18.50;;;8.02;;
53010;SDS011;42803;55.762;38.084;2023-02-01T02:07:56;20.55;;;7.75;;
53010;SDS011;42803;55.762;38.084;2023-02-01T02:10:30;25.02;;;8.38;;
53010;SDS011;42803;55.762;38.084;2023-02-01T02:13:13;21.63;;;8.37;;
53010;SDS011;42803;55.762;38.084;2023-02-01T02:15:46;18.63;;;7.88;;
53010;SDS011;42803;55.762;38.084;2023-02-01T02:18:22;20.33;;;8.43;;
53010;SDS011;42803;55.762;38.084;2023-02-01T02:21:08;20.05;;;7.82;;
53010;SDS011;42803;55.762;38.084;2023-02-01T02:23:53;21.05;;;8.05;;
53010;SDS011;42803;55.762;38.084;2023-02-01T02:26:40;17.40;;;7.70;;
53010;SDS011;42803;55.762;38.084;2023-02-01T02:29:40;18.42;;;7.80;;
53010;SDS011;42803;55.762;38.084;2023-02-01T02:32:35;22.27;;;8.18;;
53010;SDS011;42803;55.762;38.084;2023-02-01T02:35:32;23.48;;;8.15;;
53010;SDS011;42803;55.762;38.084;2023-02-01T02:38:12;24.95;;;9.52;;
53010;SDS011;42803;55.762;38.084;2023-02-01T02:40:48;18.67;;;8.32;;
53010;SDS011;42803;55.762;38.084;2023-02-01T02:43:27;22.58;;;8.77;;
53010;SDS011;42803;55.762;38.084;2023-02-01T02:46:22;24.73;;;8.98;;
53010;SDS011;42803;55.762;38.084;2023-02-01T02:49:14;24.35;;;9.13;;
53010;SDS011;42803;55.762;38.084;2023-02-01T02:51:52;23.42;;;9.05;;
53010;SDS011;42803;55.762;38.084;2023-02-01T02:54:43;25.30;;;9.07;;
53010;SDS011;42803;55.762;38.084;2023-02-01T02:57:21;23.13;;;8.18;;
53010;SDS011;42803;55.762;38.084;2023-02-01T03:00:12;21.20;;;7.95;;
53010;SDS011;42803;55.762;38.084;2023-02-01T03:03:02;28.75;;;9.15;;
53010;SDS011;42803;55.762;38.084;2023-02-01T03:05:49;22.65;;;8.25;;
53010;SDS011;42803;55.762;38.084;2023-02-01T03:08:21;26.08;;;9.18;;
53010;SDS011;42803;55.762;38.084;2023-02-01T03:10:53;20.90;;;8.65;;
53010;SDS011;42803;55.762;38.084;2023-02-01T03:13:27;20.15;;;8.32;;
53010;SDS011;42803;55.762;38.084;2023-02-01T03:16:01;23.65;;;7.70;;
53010;SDS011;42803;55.762;38.084;2023-02-01T03:18:36;22.60;;;8.37;;
53010;SDS011;42803;55.762;38.084;2023-02-01T03:21:15;22.55;;;7.53;;
53010;SDS011;42803;55.762;38.084;2023-02-01T03:23:50;23.05;;;8.30;;
53010;SDS011;42803;55.762;38.084;2023-02-01T03:26:22;25.50;;;8.70;;
53010;SDS011;42803;55.762;38.084;2023-02-01T03:28:56;30.67;;;10.85;;
53010;SDS011;42803;55.762;38.084;2023-02-01T03:31:34;18.13;;;7.93;;
53010;SDS011;42803;55.762;38.084;2023-02-01T03:34:03;26.90;;;9.18;;
53010;SDS011;42803;55.762;38.084;2023-02-01T03:36:37;23.30;;;8.70;;
53010;SDS011;42803;55.762;38.084;2023-02-01T03:39:14;26.27;;;8.68;;
53010;SDS011;42803;55.762;38.084;2023-02-01T03:41:48;25.77;;;8.65;;
53010;SDS011;42803;55.762;38.084;2023-02-01T03:44:20;23.52;;;9.23;;
53010;SDS011;42803;55.762;38.084;2023-02-01T03:46:54;26.73;;;9.10;;
53010;SDS011;42803;55.762;38.084;2023-02-01T03:49:27;22.65;;;8.60;;
53010;SDS011;42803;55.762;38.084;2023-02-01T03:51:59;22.35;;;8.45;;
53010;SDS011;42803;55.762;38.084;2023-02-01T03:54:32;24.35;;;9.68;;
53010;SDS011;42803;55.762;38.084;2023-02-01T03:57:03;20.88;;;8.52;;
53010;SDS011;42803;55.762;38.084;2023-02-01T03:59:38;26.65;;;9.77;;
53010;SDS011;42803;55.762;38.084;2023-02-01T04:02:08;23.92;;;9.25;;
53010;SDS011;42803;55.762;38.084;2023-02-01T04:04:37;26.17;;;9.55;;
53010;SDS011;42803;55.762;38.084;2023-02-01T04:07:07;23.27;;;8.68;;
53010;SDS011;42803;55.762;38.084;2023-02-01T04:09:38;26.15;;;9.60;;
53010;SDS011;42803;55.762;38.084;2023-02-01T04:12:07;24.50;;;8.77;;
53010;SDS011;42803;55.762;38.084;2023-02-01T04:14:36;25.48;;;9.25;;
53010;SDS011;42803;55.762;38.084;2023-02-01T04:17:05;24.48;;;9.50;;
53010;SDS011;42803;55.762;38.084;2023-02-01T04:19:34;26.25;;;9.88;;
53010;SDS011;42803;55.762;38.084;2023-02-01T04:22:03;25.50;;;9.50;;
53010;SDS011;42803;55.762;38.084;2023-02-01T04:24:32;27.27;;;10.35;;
53010;SDS011;42803;55.762;38.084;2023-02-01T04:27:02;24.17;;;8.65;;
53010;SDS011;42803;55.762;38.084;2023-02-01T04:29:31;22.40;;;9.35;;
53010;SDS011;42803;55.762;38.084;2023-02-01T04:32:00;24.85;;;9.18;;
53010;SDS011;42803;55.762;38.084;2023-02-01T04:34:29;23.70;;;9.00;;
53010;SDS011;42803;55.762;38.084;2023-02-01T04:36:59;17.35;;;8.02;;
53010;SDS011;42803;55.762;38.084;2023-02-01T04:39:28;25.20;;;8.10;;
53010;SDS011;42803;55.762;38.084;2023-02-01T04:41:57;23.15;;;8.35;;
53010;SDS011;42803;55.762;38.084;2023-02-01T04:44:27;24.00;;;9.68;;
53010;SDS011;42803;55.762;38.084;2023-02-01T04:46:56;22.33;;;9.80;;
53010;SDS011;42803;55.762;38.084;2023-02-01T04:49:25;23.75;;;9.32;;
53010;SDS011;42803;55.762;38.084;2023-02-01T04:51:54;21.52;;;8.57;;
53010;SDS011;42803;55.762;38.084;2023-02-01T04:54:23;24.58;;;8.60;;
53010;SDS011;42803;55.762;38.084;2023-02-01T04:56:52;22.40;;;9.57;;
53010;SDS011;42803;55.762;38.084;2023-02-01T04:59:22;26.30;;;9.32;;
53010;SDS011;42803;55.762;38.084;2023-02-01T05:01:52;21.50;;;8.60;;
53010;SDS011;42803;55.762;38.084;2023-02-01T05:04:21;21.77;;;9.18;;
53010;SDS011;42803;55.762;38.084;2023-02-01T05:06:50;25.52;;;9.90;;
53010;SDS011;42803;55.762;38.084;2023-02-01T05:09:19;26.13;;;9.38;;
53010;SDS011;42803;55.762;38.084;2023-02-01T05:11:49;24.55;;;9.13;;
53010;SDS011;42803;55.762;38.084;2023-02-01T05:14:34;23.75;;;10.20;;
53010;SDS011;42803;55.762;38.084;2023-02-01T05:17:04;23.90;;;9.38;;
53010;SDS011;42803;55.762;38.084;2023-02-01T05:19:33;27.63;;;10.48;;
53010;SDS011;42803;55.762;38.084;2023-02-01T05:22:02;25.63;;;9.23;;
53010;SDS011;42803;55.762;38.084;2023-02-01T05:24:31;28.60;;;11.00;;
53010;SDS011;42803;55.762;38.084;2023-02-01T05:27:00;29.17;;;9.90;;
53010;SDS011;42803;55.762;38.084;2023-02-01T05:29:29;25.83;;;9.80;;
53010;SDS011;42803;55.762;38.084;2023-02-01T05:31:58;27.95;;;10.38;;
53010;SDS011;42803;55.762;38.084;2023-02-01T05:34:48;26.38;;;9.90;;
53010;SDS011;42803;55.762;38.084;2023-02-01T05:37:17;27.02;;;10.13;;
53010;SDS011;42803;55.762;38.084;2023-02-01T05:39:46;28.85;;;10.25;;
53010;SDS011;42803;55.762;38.084;2023-02-01T05:42:16;26.55;;;9.30;;
53010;SDS011;42803;55.762;38.084;2023-02-01T05:44:45;26.13;;;9.63;;
53010;SDS011;42803;55.762;38.084;2023-02-01T05:47:14;28.38;;;10.32;;
53010;SDS011;42803;55.762;38.084;2023-02-01T05:49:43;26.27;;;10.00;;
53010;SDS011;42803;55.762;38.084;2023-02-01T05:52:13;27.17;;;10.90;;
53010;SDS011;42803;55.762;38.084;2023-02-01T05:54:46;25.13;;;10.57;;
53010;SDS011;42803;55.762;38.084;2023-02-01T05:57:15;29.08;;;10.07;;
53010;SDS011;42803;55.762;38.084;2023-02-01T05:59:44;26.33;;;9.90;;
53010;SDS011;42803;55.762;38.084;2023-02-01T06:02:14;28.77;;;9.95;;
53010;SDS011;42803;55.762;38.084;2023-02-01T06:04:44;24.48;;;10.43;;
53010;SDS011;42803;55.762;38.084;2023-02-01T06:07:14;27.98;;;10.10;;
53010;SDS011;42803;55.762;38.084;2023-02-01T06:09:43;22.35;;;9.23;;
53010;SDS011;42803;55.762;38.084;2023-02-01T06:12:12;32.05;;;10.77;;
53010;SDS011;42803;55.762;38.084;2023-02-01T06:14:41;25.95;;;9.30;;
53010;SDS011;42803;55.762;38.084;2023-02-01T06:17:10;29.50;;;11.10;;
53010;SDS011;42803;55.762;38.084;2023-02-01T06:19:40;28.67;;;10.45;;
53010;SDS011;42803;55.762;38.084;2023-02-01T06:22:09;30.30;;;10.77;;
53010;SDS011;42803;55.762;38.084;2023-02-01T06:24:39;27.05;;;10.52;;
53010;SDS011;42803;55.762;38.084;2023-02-01T06:27:09;27.48;;;11.18;;
53010;SDS011;42803;55.762;38.084;2023-02-01T06:29:39;26.77;;;10.85;;
53010;SDS011;42803;55.762;38.084;2023-02-01T06:32:08;29.50;;;10.60;;
53010;SDS011;42803;55.762;38.084;2023-02-01T06:34:37;26.50;;;9.68;;
53010;SDS011;42803;55.762;38.084;2023-02-01T06:37:06;28.13;;;10.90;;
53010;SDS011;42803;55.762;38.084;2023-02-01T06:39:35;27.85;;;9.77;;
53010;SDS011;42803;55.762;38.084;2023-02-01T06:42:06;30.30;;;10.90;;
53010;SDS011;42803;55.762;38.084;2023-02-01T06:44:35;35.30;;;10.02;;
53010;SDS011;42803;55.762;38.084;2023-02-01T06:47:04;31.05;;;10.90;;
53010;SDS011;42803;55.762;38.084;2023-02-01T06:49:35;29.05;;;10.07;;
53010;SDS011;42803;55.762;38.084;2023-02-01T06:52:04;29.60;;;11.10;;
53010;SDS011;42803;55.762;38.084;2023-02-01T06:54:33;27.23;;;11.23;;
53010;SDS011;42803;55.762;38.084;2023-02-01T06:57:06;23.98;;;9.85;;
53010;SDS011;42803;55.762;38.084;2023-02-01T06:59:35;22.45;;;9.43;;
53010;SDS011;42803;55.762;38.084;2023-02-01T07:02:04;28.13;;;11.10;;
53010;SDS011;42803;55.762;38.084;2023-02-01T07:04:33;25.73;;;10.40;;
53010;SDS011;42803;55.762;38.084;2023-02-01T07:07:03;30.92;;;9.82;;
53010;SDS011;42803;55.762;38.084;2023-02-01T07:09:32;23.73;;;9.13;;
53010;SDS011;42803;55.762;38.084;2023-02-01T07:12:03;30.23;;;10.27;;
53010;SDS011;42803;55.762;38.084;2023-02-01T07:14:34;23.27;;;9.85;;
53010;SDS011;42803;55.762;38.084;2023-02-01T07:17:03;24.70;;;9.82;;
53010;SDS011;42803;55.762;38.084;2023-02-01T07:19:32;28.95;;;11.75;;
53010;SDS011;42803;55.762;38.084;2023-02-01T07:22:03;24.95;;;9.20;;
53010;SDS011;42803;55.762;38.084;2023-02-01T07:24:33;28.30;;;10.35;;
53010;SDS011;42803;55.762;38.084;2023-02-01T07:27:02;29.33;;;11.75;;
53010;SDS011;42803;55.762;38.084;2023-02-01T07:29:33;28.88;;;11.73;;
53010;SDS011;42803;55.762;38.084;2023-02-01T07:32:02;27.73;;;10.55;;
53010;SDS011;42803;55.762;38.084;2023-02-01T07:34:31;37.38;;;12.85;;
53010;SDS011;42803;55.762;38.084;2023-02-01T07:37:01;33.88;;;11.32;;
53010;SDS011;42803;55.762;38.084;2023-02-01T07:39:30;26.23;;;10.70;;
53010;SDS011;42803;55.762;38.084;2023-02-01T07:41:59;26.92;;;10.52;;
53010;SDS011;42803;55.762;38.084;2023-02-01T07:44:29;27.30;;;11.65;;
53010;SDS011;42803;55.762;38.084;2023-02-01T07:46:59;31.60;;;11.02;;
53010;SDS011;42803;55.762;38.084;2023-02-01T07:49:28;22.90;;;9.93;;
53010;SDS011;42803;55.762;38.084;2023-02-01T07:51:58;24.15;;;11.07;;
53010;SDS011;42803;55.762;38.084;2023-02-01T07:54:27;22.70;;;10.10;;
53010;SDS011;42803;55.762;38.084;2023-02-01T07:56:56;26.02;;;10.30;;
53010;SDS011;42803;55.762;38.084;2023-02-01T07:59:25;27.05;;;10.27;;
53010;SDS011;42803;55.762;38.084;2023-02-01T08:01:55;22.65;;;9.70;;
53010;SDS011;42803;55.762;38.084;2023-02-01T08:04:24;28.58;;;10.52;;
53010;SDS011;42803;55.762;38.084;2023-02-01T08:06:53;40.15;;;15.73;;
53010;SDS011;42803;55.762;38.084;2023-02-01T08:09:22;25.13;;;10.98;;
53010;SDS011;42803;55.762;38.084;2023-02-01T08:11:51;26.35;;;10.23;;
53010;SDS011;42803;55.762;38.084;2023-02-01T08:14:20;22.30;;;8.82;;
53010;SDS011;42803;55.762;38.084;2023-02-01T08:16:49;24.42;;;9.38;;
53010;SDS011;42803;55.762;38.084;2023-02-01T08:19:18;19.23;;;8.32;;
53010;SDS011;42803;55.762;38.084;2023-02-01T08:21:49;22.48;;;9.45;;
53010;SDS011;42803;55.762;38.084;2023-02-01T08:24:18;19.73;;;8.00;;
53010;SDS011;42803;55.762;38.084;2023-02-01T08:26:48;26.40;;;9.27;;
53010;SDS011;42803;55.762;38.084;2023-02-01T08:29:17;21.23;;;8.40;;
53010;SDS011;42803;55.762;38.084;2023-02-01T08:31:46;19.83;;;8.13;;
53010;SDS011;42803;55.762;38.084;2023-02-01T08:34:15;19.55;;;8.68;;
53010;SDS011;42803;55.762;38.084;2023-02-01T08:36:44;19.75;;;9.25;;
53010;SDS011;42803;55.762;38.084;2023-02-01T08:39:15;24.67;;;8.98;;
53010;SDS011;42803;55.762;38.084;2023-02-01T08:41:44;20.13;;;7.97;;
53010;SDS011;42803;55.762;38.084;2023-02-01T08:44:34;19.23;;;9.18;;
53010;SDS011;42803;55.762;38.084;2023-02-01T08:47:03;34.22;;;11.27;;
53010;SDS011;42803;55.762;38.084;2023-02-01T08:49:33;25.10;;;9.25;;
53010;SDS011;42803;55.762;38.084;2023-02-01T08:52:02;23.55;;;8.73;;
53010;SDS011;42803;55.762;38.084;2023-02-01T08:54:42;23.15;;;9.13;;
53010;SDS011;42803;55.762;38.084;2023-02-01T08:57:11;20.55;;;9.27;;
53010;SDS011;42803;55.762;38.084;2023-02-01T08:59:41;27.00;;;9.30;;
53010;SDS011;42803;55.762;38.084;2023-02-01T09:02:12;21.63;;;8.75;;
53010;SDS011;42803;55.762;38.084;2023-02-01T09:04:42;18.80;;;8.77;;
53010;SDS011;42803;55.762;38.084;2023-02-01T09:07:12;20.63;;;8.95;;
53010;SDS011;42803;55.762;38.084;2023-02-01T09:09:43;22.73;;;9.05;;
53010;SDS011;42803;55.762;38.084;2023-02-01T09:12:12;20.08;;;8.85;;
53010;SDS011;42803;55.762;38.084;2023-02-01T09:14:41;22.35;;;9.10;;
53010;SDS011;42803;55.762;38.084;2023-02-01T09:17:10;22.08;;;8.73;;
53010;SDS011;42803;55.762;38.084;2023-02-01T09:19:40;21.83;;;8.43;;
53010;SDS011;42803;55.762;38.084;2023-02-01T09:22:09;23.15;;;8.68;;
53010;SDS011;42803;55.762;38.084;2023-02-01T09:24:38;18.98;;;8.13;;
53010;SDS011;42803;55.762;38.084;2023-02-01T09:27:09;18.70;;;7.75;;
53010;SDS011;42803;55.762;38.084;2023-02-01T09:29:38;17.92;;;7.68;;
53010;SDS011;42803;55.762;38.084;2023-02-01T09:32:08;20.98;;;8.73;;
53010;SDS011;42803;55.762;38.084;2023-02-01T09:34:37;22.52;;;9.80;;
53010;SDS011;42803;55.762;38.084;2023-02-01T09:37:10;23.70;;;9.82;;
53010;SDS011;42803;55.762;38.084;2023-02-01T09:39:41;26.35;;;10.02;;
53010;SDS011;42803;55.762;38.084;2023-02-01T09:42:16;23.23;;;9.10;;
53010;SDS011;42803;55.762;38.084;2023-02-01T09:44:58;24.83;;;10.57;;
53010;SDS011;42803;55.762;38.084;2023-02-01T09:47:35;23.60;;;10.35;;
53010;SDS011;42803;55.762;38.084;2023-02-01T09:50:13;27.08;;;10.27;;
53010;SDS011;42803;55.762;38.084;2023-02-01T09:52:50;27.27;;;11.20;;
53010;SDS011;42803;55.762;38.084;2023-02-01T09:55:25;29.75;;;11.77;;
53010;SDS011;42803;55.762;38.084;2023-02-01T09:58:04;29.00;;;11.65;;
53010;SDS011;42803;55.762;38.084;2023-02-01T10:03:09;26.60;;;10.10;;
53010;SDS011;42803;55.762;38.084;2023-02-01T10:08:40;29.58;;;12.80;;
53010;SDS011;42803;55.762;38.084;2023-02-01T10:11:29;27.38;;;11.45;;
53010;SDS011;42803;55.762;38.084;2023-02-01T10:14:20;27.55;;;12.60;;
53010;SDS011;42803;55.762;38.084;2023-02-01T10:17:13;30.08;;;12.48;;
53010;SDS011;42803;55.762;38.084;2023-02-01T10:19:55;27.70;;;11.80;;
53010;SDS011;42803;55.762;38.084;2023-02-01T10:22:39;29.88;;;11.95;;
53010;SDS011;42803;55.762;38.084;2023-02-01T10:25:31;32.00;;;11.60;;
53010;SDS011;42803;55.762;38.084;2023-02-01T10:28:07;27.77;;;11.65;;
53010;SDS011;42803;55.762;38.084;2023-02-01T10:30:44;27.30;;;10.77;;
53010;SDS011;42803;55.762;38.084;2023-02-01T10:33:17;32.30;;;13.05;;
53010;SDS011;42803;55.762;38.084;2023-02-01T10:35:47;29.52;;;12.50;;
53010;SDS011;42803;55.762;38.084;2023-02-01T10:38:24;25.15;;;10.80;;
53010;SDS011;42803;55.762;38.084;2023-02-01T10:40:59;25.30;;;10.50;;
53010;SDS011;42803;55.762;38.084;2023-02-01T10:43:31;25.52;;;10.52;;
53010;SDS011;42803;55.762;38.084;2023-02-01T10:46:02;24.63;;;10.20;;
53010;SDS011;42803;55.762;38.084;2023-02-01T10:48:32;24.17;;;9.93;;
53010;SDS011;42803;55.762;38.084;2023-02-01T10:51:05;25.27;;;10.60;;
53010;SDS011;42803;55.762;38.084;2023-02-01T10:53:41;26.15;;;10.60;;
53010;SDS011;42803;55.762;38.084;2023-02-01T10:56:21;24.42;;;10.30;;
53010;SDS011;42803;55.762;38.084;2023-02-01T10:58:58;25.95;;;10.55;;
53010;SDS011;42803;55.762;38.084;2023-02-01T11:01:33;28.02;;;11.18;;
53010;SDS011;42803;55.762;38.084;2023-02-01T11:04:06;26.65;;;11.27;;
53010;SDS011;42803;55.762;38.084;2023-02-01T11:06:39;25.50;;;10.35;;
53010;SDS011;42803;55.762;38.084;2023-02-01T11:09:14;27.20;;;11.15;;
53010;SDS011;42803;55.762;38.084;2023-02-01T11:11:55;24.80;;;9.93;;
53010;SDS011;42803;55.762;38.084;2023-02-01T11:14:27;26.40;;;10.90;;
53010;SDS011;42803;55.762;38.084;2023-02-01T11:17:16;31.50;;;10.93;;
53010;SDS011;42803;55.762;38.084;2023-02-01T11:19:55;23.83;;;10.55;;
53010;SDS011;42803;55.762;38.084;2023-02-01T11:25:09;24.60;;;10.43;;
53010;SDS011;42803;55.762;38.084;2023-02-01T11:27:39;28.92;;;10.98;;
53010;SDS011;42803;55.762;38.084;2023-02-01T11:30:22;23.77;;;9.88;;
53010;SDS011;42803;55.762;38.084;2023-02-01T11:33:03;23.77;;;9.93;;
53010;SDS011;42803;55.762;38.084;2023-02-01T11:35:33;23.65;;;10.23;;
53010;SDS011;42803;55.762;38.084;2023-02-01T11:38:10;25.30;;;10.55;;
53010;SDS011;42803;55.762;38.084;2023-02-01T11:40:48;30.35;;;11.77;;
53010;SDS011;42803;55.762;38.084;2023-02-01T11:43:22;24.50;;;10.13;;
53010;SDS011;42803;55.762;38.084;2023-02-01T11:45:56;29.75;;;10.38;;
53010;SDS011;42803;55.762;38.084;2023-02-01T11:48:30;28.98;;;10.90;;
53010;SDS011;42803;55.762;38.084;2023-02-01T11:51:12;26.83;;;10.38;;
53010;SDS011;42803;55.762;38.084;2023-02-01T11:54:01;28.08;;;10.48;;
53010;SDS011;42803;55.762;38.084;2023-02-01T11:56:41;32.03;;;12.10;;
53010;SDS011;42803;55.762;38.084;2023-02-01T11:59:22;24.25;;;10.05;;
53010;SDS011;42803;55.762;38.084;2023-02-01T12:02:11;27.20;;;10.48;;
53010;SDS011;42803;55.762;38.084;2023-02-01T12:04:56;25.10;;;9.88;;
53010;SDS011;42803;55.762;38.084;2023-02-01T12:07:44;23.25;;;9.27;;
53010;SDS011;42803;55.762;38.084;2023-02-01T12:10:26;24.73;;;9.40;;
53010;SDS011;42803;55.762;38.084;2023-02-01T12:13:09;24.55;;;8.55;;
53010;SDS011;42803;55.762;38.084;2023-02-01T12:15:52;26.23;;;9.75;;
53010;SDS011;42803;55.762;38.084;2023-02-01T12:18:35;21.08;;;8.50;;
53010;SDS011;42803;55.762;38.084;2023-02-01T12:21:24;23.50;;;9.25;;
53010;SDS011;42803;55.762;38.084;2023-02-01T12:27:38;24.42;;;9.32;;
53010;SDS011;42803;55.762;38.084;2023-02-01T12:33:21;19.88;;;8.20;;
53010;SDS011;42803;55.762;38.084;2023-02-01T12:36:05;19.95;;;7.80;;
53010;SDS011;42803;55.762;38.084;2023-02-01T12:38:53;18.45;;;8.48;;
53010;SDS011;42803;55.762;38.084;2023-02-01T12:41:31;22.35;;;9.15;;
53010;SDS011;42803;55.762;38.084;2023-02-01T12:44:11;18.90;;;7.97;;
53010;SDS011;42803;55.762;38.084;2023-02-01T12:46:46;23.00;;;9.27;;
53010;SDS011;42803;55.762;38.084;2023-02-01T12:49:19;22.73;;;9.05;;
53010;SDS011;42803;55.762;38.084;2023-02-01T12:51:54;18.02;;;8.05;;
53010;SDS011;42803;55.762;38.084;2023-02-01T12:54:30;23.85;;;9.10;;
53010;SDS011;42803;55.762;38.084;2023-02-01T12:57:05;26.20;;;8.85;;
53010;SDS011;42803;55.762;38.084;2023-02-01T12:59:39;21.50;;;9.05;;
53010;SDS011;42803;55.762;38.084;2023-02-01T13:02:15;18.77;;;7.30;;
53010;SDS011;42803;55.762;38.084;2023-02-01T13:04:51;23.05;;;9.48;;
53010;SDS011;42803;55.762;38.084;2023-02-01T13:07:30;21.15;;;8.70;;
53010;SDS011;42803;55.762;38.084;2023-02-01T13:10:11;21.52;;;8.27;;
53010;SDS011;42803;55.762;38.084;2023-02-01T13:12:45;24.50;;;8.88;;
53010;SDS011;42803;55.762;38.084;2023-02-01T13:15:22;20.27;;;8.07;;
53010;SDS011;42803;55.762;38.084;2023-02-01T13:17:55;19.88;;;8.23;;
53010;SDS011;42803;55.762;38.084;2023-02-01T13:20:29;19.55;;;8.20;;
53010;SDS011;42803;55.762;38.084;2023-02-01T13:23:03;19.80;;;8.77;;
53010;SDS011;42803;55.762;38.084;2023-02-01T13:25:40;22.77;;;8.82;;
53010;SDS011;42803;55.762;38.084;2023-02-01T13:28:16;24.15;;;8.63;;
53010;SDS011;42803;55.762;38.084;2023-02-01T13:30:54;20.13;;;8.90;;
53010;SDS011;42803;55.762;38.084;2023-02-01T13:33:50;21.55;;;9.38;;
53010;SDS011;42803;55.762;38.084;2023-02-01T13:36:31;23.00;;;9.18;;
53010;SDS011;42803;55.762;38.084;2023-02-01T13:39:31;24.13;;;9.52;;
53010;SDS011;42803;55.762;38.084;2023-02-01T13:42:17;22.48;;;9.55;;
53010;SDS011;42803;55.762;38.084;2023-02-01T13:47:22;24.70;;;10.07;;
53010;SDS011;42803;55.762;38.084;2023-02-01T13:49:56;27.70;;;10.43;;
53010;SDS011;42803;55.762;38.084;2023-02-01T13:52:32;30.60;;;11.32;;
53010;SDS011;42803;55.762;38.084;2023-02-01T13:55:16;23.05;;;9.18;;
53010;SDS011;42803;55.762;38.084;2023-02-01T13:58:03;28.50;;;10.40;;
53010;SDS011;42803;55.762;38.084;2023-02-01T14:00:39;24.17;;;10.68;;
53010;SDS011;42803;55.762;38.084;2023-02-01T14:03:11;33.15;;;9.63;;
53010;SDS011;42803;55.762;38.084;2023-02-01T14:05:55;20.48;;;8.52;;
53010;SDS011;42803;55.762;38.084;2023-02-01T14:08:46;27.75;;;10.13;;
53010;SDS011;42803;55.762;38.084;2023-02-01T14:11:37;27.88;;;10.05;;
53010;SDS011;42803;55.762;38.084;2023-02-01T14:23:20;27.58;;;10.20;;
53010;SDS011;42803;55.762;38.084;2023-02-01T14:28:49;26.13;;;10.10;;
53010;SDS011;42803;55.762;38.084;2023-02-01T14:31:31;28.23;;;10.63;;
53010;SDS011;42803;55.762;38.084;2023-02-01T14:34:08;25.60;;;10.73;;
53010;SDS011;42803;55.762;38.084;2023-02-01T14:36:43;25.70;;;10.20;;
53010;SDS011;42803;55.762;38.084;2023-02-01T14:42:14;31.60;;;9.50;;
53010;SDS011;42803;55.762;38.084;2023-02-01T14:44:51;26.75;;;9.65;;
53010;SDS011;42803;55.762;38.084;2023-02-01T14:47:27;22.33;;;9.23;;
53010;SDS011;42803;55.762;38.084;2023-02-01T14:53:06;26.33;;;9.95;;
53010;SDS011;42803;55.762;38.084;2023-02-01T14:55:44;28.45;;;10.90;;
53010;SDS011;42803;55.762;38.084;2023-02-01T14:58:20;25.50;;;9.70;;
53010;SDS011;42803;55.762;38.084;2023-02-01T15:01:01;26.25;;;9.57;;
53010;SDS011;42803;55.762;38.084;2023-02-01T15:03:41;33.33;;;10.73;;
53010;SDS011;42803;55.762;38.084;2023-02-01T15:06:24;27.85;;;10.43;;
53010;SDS011;42803;55.762;38.084;2023-02-01T15:08:57;24.92;;;9.70;;
53010;SDS011;42803;55.762;38.084;2023-02-01T15:11:28;26.67;;;10.02;;
53010;SDS011;42803;55.762;38.084;2023-02-01T15:13:57;22.33;;;10.40;;
53010;SDS011;42803;55.762;38.084;2023-02-01T15:16:27;25.13;;;10.23;;
53010;SDS011;42803;55.762;38.084;2023-02-01T15:19:09;28.85;;;11.18;;
53010;SDS011;42803;55.762;38.084;2023-02-01T15:21:48;26.55;;;9.20;;
53010;SDS011;42803;55.762;38.084;2023-02-01T15:24:20;28.00;;;9.90;;
53010;SDS011;42803;55.762;38.084;2023-02-01T15:26:51;26.17;;;10.30;;
53010;SDS011;42803;55.762;38.084;2023-02-01T15:29:23;27.13;;;10.10;;
53010;SDS011;42803;55.762;38.084;2023-02-01T15:31:55;22.20;;;9.18;;
53010;SDS011;42803;55.762;38.084;2023-02-01T15:34:33;27.65;;;9.88;;